Time;durP1;ratioP1;P1;durP2;ratioP2;P2;SDS_P1;SDS_P2;PMS_P1;PMS_P2;Temp;Humidity;BMP_temperature;BMP_pressure;BME280_temperature;BME280_humidity;BME280_pressure;Samples;Min_cycle;Max_cycle;Signal;HPM_P1;HPM_P2
2022/02/23 00:01:22;;;;;;;8.43;1.35;;;;;;;-149.78;100.00;50483.19;4769796;30;20062;-68
2022/02/23 00:04:06;;;;;;;11.48;1.60;;;;;;;-149.78;100.00;50494.91;4767453;30;20112;-68
2022/02/23 00:06:50;;;;;;;7.28;1.33;;;;;;;-149.78;100.00;50494.91;4768336;30;20108;-68
2022/02/23 00:09:34;;;;;;;9.15;1.45;;;;;;;-149.78;100.00;50463.63;4768570;30;20163;-68
2022/02/23 00:12:18;;;;;;;10.20;1.45;;;;;;;-149.78;100.00;50516.44;4768324;30;20124;-68
2022/02/23 00:15:03;;;;;;;9.90;1.67;;;;;;;-149.78;100.00;50467.53;4768352;30;20122;-68
2022/02/23 00:17:48;;;;;;;8.15;1.52;;;;;;;-149.78;100.00;50510.56;4768172;30;20062;-68
2022/02/23 00:20:32;;;;;;;3.78;1.20;;;;;;;-149.78;100.00;50455.81;4768055;30;20116;-68
2022/02/23 00:23:18;;;;;;;18.40;1.83;;;;;;;-149.78;100.00;50467.53;4767230;30;20075;-68
2022/02/23 00:26:02;;;;;;;6.53;1.95;;;;;;;-149.78;100.00;50494.91;4767091;30;20078;-68
2022/02/23 00:28:46;;;;;;;7.47;1.48;;;;;;;-149.78;100.00;50487.09;4767850;30;20093;-68
2022/02/23 00:31:30;;;;;;;9.48;1.25;;;;;;;-149.78;100.00;50473.41;4767966;30;20162;-68
2022/02/23 00:34:14;;;;;;;6.60;1.30;;;;;;;-149.78;100.00;50475.34;4766708;30;20058;-68
2022/02/23 00:36:58;;;;;;;13.02;1.60;;;;;;;-149.78;100.00;50467.53;4754354;30;20090;-68
2022/02/23 00:39:43;;;;;;;8.70;1.70;;;;;;;-149.78;100.00;50506.66;4767747;30;20121;-68
2022/02/23 00:42:27;;;;;;;3.72;1.35;;;;;;;-149.78;100.00;50453.84;4767238;30;20062;-68
2022/02/23 00:45:11;;;;;;;10.13;1.70;;;;;;;-149.78;100.00;50498.81;4785677;30;20562;-68
2022/02/23 00:47:55;;;;;;;5.55;1.23;;;;;;;-149.78;100.00;50459.72;4785343;29;20066;-68
2022/02/23 00:50:39;;;;;;;6.07;1.20;;;;;;;-149.78;100.00;50510.56;4785506;30;20062;-68
2022/02/23 00:53:23;;;;;;;4.82;1.90;;;;;;;-149.78;100.00;50487.09;4785724;30;20057;-68
2022/02/23 00:56:07;;;;;;;12.80;1.58;;;;;;;-149.78;100.00;50492.97;4784698;30;20054;-68
2022/02/23 00:58:51;;;;;;;5.35;1.40;;;;;;;-149.78;100.00;50473.41;4784493;30;20522;-68
2022/02/23 01:01:36;;;;;;;7.18;1.35;;;;;;;-149.78;100.00;50494.91;4749636;30;20692;-68
2022/02/23 01:04:20;;;;;;;7.95;1.30;;;;;;;-149.78;100.00;50461.66;4749661;30;20059;-68
2022/02/23 01:07:05;;;;;;;6.97;1.38;;;;;;;-149.78;100.00;50494.91;4748453;30;20066;-68
2022/02/23 01:09:49;;;;;;;8.18;1.38;;;;;;;-149.78;100.00;50471.44;4767154;30;20421;-68
2022/02/23 01:12:33;;;;;;;4.63;1.48;;;;;;;-149.78;100.00;50447.97;4767049;30;20062;-69
2022/02/23 01:15:17;;;;;;;10.15;1.30;;;;;;;-149.78;100.00;50494.91;4753494;30;20063;-68
2022/02/23 01:18:02;;;;;;;10.88;1.60;;;;;;;-149.78;100.00;50496.88;4767201;30;20108;-68
2022/02/23 01:20:47;;;;;;;10.00;1.63;;;;;;;-149.78;100.00;50506.66;4753783;30;20058;-69
2022/02/23 01:23:31;;;;;;;15.40;2.00;;;;;;;-149.78;100.00;50502.75;4767001;30;20058;-68
2022/02/23 01:26:15;;;;;;;10.60;1.70;;;;;;;-149.78;100.00;50498.81;4766894;30;20177;-68
2022/02/23 01:28:59;;;;;;;9.95;1.52;;;;;;;-149.78;100.00;50428.41;4765647;30;20063;-68
2022/02/23 01:31:44;;;;;;;8.90;1.70;;;;;;;-149.78;100.00;50465.56;4766059;30;20058;-69
2022/02/23 01:34:27;;;;;;;14.05;2.30;;;;;;;-149.78;100.00;50498.81;4766809;30;20058;-68
2022/02/23 01:37:13;;;;;;;10.77;1.67;;;;;;;-149.78;100.00;50475.34;4766875;30;20121;-68
2022/02/23 01:40:16;;;;;;;10.85;2.33;;;;;;;-149.78;100.00;50475.34;4766737;30;20123;-69
2022/02/23 01:43:00;;;;;;;7.38;1.60;;;;;;;-149.78;100.00;50487.09;4767879;30;20105;-68
2022/02/23 01:45:44;;;;;;;6.85;1.88;;;;;;;-149.78;100.00;50500.78;4785164;30;20089;-69
2022/02/23 01:48:28;;;;;;;10.10;1.35;;;;;;;-149.78;100.00;50491.00;4784816;29;20123;-68
2022/02/23 01:51:19;;;;;;;3.70;1.20;;;;;;;-149.78;100.00;50465.56;4785264;29;20063;-68
2022/02/23 01:54:04;;;;;;;16.42;2.10;;;;;;;-149.78;100.00;50487.09;4784447;30;20112;-68
2022/02/23 01:57:08;;;;;;;17.80;1.58;;;;;;;-149.78;100.00;50455.81;4746966;30;20051;-69
2022/02/23 01:59:52;;;;;;;8.55;1.40;;;;;;;-149.78;100.00;50467.53;4740997;30;20545;-68
2022/02/23 02:02:36;;;;;;;10.18;1.80;;;;;;;-149.78;100.00;50479.28;4729209;30;20142;-69
2022/02/23 02:05:21;;;;;;;8.82;1.52;;;;;;;-149.78;100.00;50522.28;4728794;30;20075;-69
2022/02/23 02:08:05;;;;;;;6.97;1.45;;;;;;;-149.78;100.00;50502.75;4736249;30;20132;-68
2022/02/23 02:10:53;;;;;;;8.98;1.70;;;;;;;-149.78;100.00;50494.91;4746435;30;20048;-68
2022/02/23 02:13:38;;;;;;;13.32;1.50;;;;;;;-149.78;100.00;50485.13;4746220;30;20147;-68
2022/02/23 02:16:21;;;;;;;10.82;1.70;;;;;;;-149.78;100.00;50545.75;4746323;30;20143;-68
2022/02/23 02:19:06;;;;;;;5.80;1.60;;;;;;;-149.78;100.00;50487.09;4733971;30;20139;-68
2022/02/23 02:22:04;;;;;;;6.07;1.92;;;;;;;-149.78;100.00;50494.91;4722927;30;20053;-68
2022/02/23 02:24:50;;;;;;;9.02;1.73;;;;;;;-149.78;100.00;50479.28;4739141;30;20056;-68
2022/02/23 02:27:19;;;;;;;8.18;1.70;;;;;;;-149.78;100.00;50514.47;4776693;30;20050;-68
2022/02/23 02:29:46;;;;;;;12.27;1.77;;;;;;;-149.78;100.00;50518.38;4784019;29;20157;-68
2022/02/23 02:32:36;;;;;;;8.20;1.50;;;;;;;-149.78;100.00;50541.84;4776900;30;20097;-68
2022/02/23 02:35:22;;;;;;;9.35;1.90;;;;;;;-149.78;100.00;50498.81;4779485;30;20047;-68
2022/02/23 02:38:11;;;;;;;7.85;1.73;;;;;;;-149.78;100.00;50506.66;4799737;29;20073;-68
2022/02/23 02:40:58;;;;;;;9.63;1.80;;;;;;;-149.78;100.00;50508.59;4799506;29;20121;-68
2022/02/23 02:43:25;;;;;;;6.97;1.55;;;;;;;-149.78;100.00;50494.91;4792122;29;20063;-68
2022/02/23 02:46:04;;;;;;;9.65;1.50;;;;;;;-149.78;100.00;50487.09;4782964;29;20047;-67
2022/02/23 02:48:50;;;;;;;14.32;1.70;;;;;;;-149.78;100.00;50475.34;4784560;29;20051;-68
2022/02/23 02:51:17;;;;;;;9.57;1.70;;;;;;;-149.78;100.00;50526.22;4784720;30;20070;-68
2022/02/23 02:54:12;;;;;;;5.82;1.40;;;;;;;-149.78;100.00;50491.00;4718813;30;20521;-68
2022/02/23 02:56:38;;;;;;;9.27;1.55;;;;;;;-149.78;100.00;50510.56;4719715;30;20084;-68
2022/02/23 02:59:22;;;;;;;8.38;1.85;;;;;;;-149.78;100.00;50469.50;4731695;30;20606;-68
2022/02/23 03:02:06;;;;;;;7.82;1.50;;;;;;;-149.78;100.00;50485.13;4749528;30;20126;-68
2022/02/23 03:04:50;;;;;;;11.05;1.75;;;;;;;-149.78;100.00;50518.38;4735498;30;20051;-68
2022/02/23 03:07:34;;;;;;;6.63;1.20;;;;;;;-149.78;100.00;50475.34;4734957;30;20953;-68
2022/02/23 03:10:19;;;;;;;7.53;1.65;;;;;;;-149.78;100.00;50522.28;4732110;30;20059;-68
2022/02/23 03:13:03;;;;;;;6.47;1.40;;;;;;;-149.78;100.00;50479.28;4731236;30;20520;-68
2022/02/23 03:15:47;;;;;;;11.70;1.65;;;;;;;-149.78;100.00;50534.03;4731538;30;20094;-68
2022/02/23 03:18:18;;;;;;;9.30;1.92;;;;;;;-149.78;100.00;50534.03;4731167;30;20056;-68
2022/02/23 03:21:15;;;;;;;7.15;1.63;;;;;;;-149.78;100.00;50475.34;4722526;30;20485;-68
2022/02/23 03:24:02;;;;;;;4.90;1.33;;;;;;;-149.78;100.00;50506.66;4753787;29;20100;-68
2022/02/23 03:26:52;;;;;;;9.45;1.33;;;;;;;-149.78;100.00;50502.75;4756878;30;20213;-68
2022/02/23 03:29:38;;;;;;;3.88;1.40;;;;;;;-149.78;100.00;50522.28;4752554;30;20059;-68
2022/02/23 03:32:25;;;;;;;5.10;1.83;;;;;;;-149.78;100.00;50498.81;4724947;30;20052;-68
2022/02/23 03:35:09;;;;;;;8.32;1.52;;;;;;;-149.78;100.00;50475.34;4730891;30;20091;-69
2022/02/23 03:37:40;;;;;;;10.95;2.13;;;;;;;-149.78;100.00;50514.47;4731079;30;20060;-68
2022/02/23 03:40:25;;;;;;;7.07;1.33;;;;;;;-149.78;100.00;50487.09;4724387;30;20444;-68
2022/02/23 03:43:29;;;;;;;12.55;1.65;;;;;;;-149.78;100.00;50498.81;4684053;30;20137;-68
2022/02/23 03:46:30;;;;;;;4.88;1.73;;;;;;;-149.78;100.00;50483.19;4686906;30;20104;-68
2022/02/23 03:49:15;;;;;;;8.32;1.38;;;;;;;-149.78;100.00;50524.25;4712224;30;20621;-68
2022/02/23 03:51:49;;;;;;;6.80;1.63;;;;;;;-149.78;100.00;50487.09;4717032;30;20053;-69
2022/02/23 03:54:31;;;;;;;10.88;2.42;;;;;;;-149.78;100.00;50502.75;4721836;30;20045;-68
2022/02/23 03:57:18;;;;;;;6.68;1.40;;;;;;;-149.78;100.00;50451.88;4694734;30;20057;-68
2022/02/23 04:00:07;;;;;;;7.60;1.10;;;;;;;-149.78;100.00;50520.34;4709180;30;20573;-68
2022/02/23 04:03:05;;;;;;;10.55;1.42;;;;;;;-149.78;100.00;50453.84;4692944;30;20392;-68
2022/02/23 04:05:49;;;;;;;8.70;1.30;;;;;;;-149.78;100.00;50494.91;4694435;30;20120;-68
2022/02/23 04:08:35;;;;;;;8.88;1.33;;;;;;;-149.78;100.00;50506.66;4690219;30;20056;-68
2022/02/23 04:11:19;;;;;;;7.53;1.20;;;;;;;-149.78;100.00;50475.34;4677581;30;20518;-68
2022/02/23 04:14:04;;;;;;;6.07;1.38;;;;;;;-149.78;100.00;50494.91;4729024;30;20067;-69
2022/02/23 04:16:52;;;;;;;14.30;1.90;;;;;;;-149.78;100.00;50506.66;4720255;30;20063;-68
2022/02/23 04:19:36;;;;;;;11.35;1.50;;;;;;;-149.78;100.00;50506.66;4730057;30;20480;-68
2022/02/23 04:22:24;;;;;;;12.05;2.00;;;;;;;-149.78;100.00;50455.81;4727762;30;20255;-68
2022/02/23 04:25:09;;;;;;;23.42;2.00;;;;;;;-149.78;100.00;50494.91;4729992;30;20689;-68
2022/02/23 04:27:53;;;;;;;7.80;1.83;;;;;;;-149.78;100.00;50502.75;4730430;30;20171;-68
2022/02/23 04:30:38;;;;;;;14.95;1.88;;;;;;;-149.78;100.00;50508.59;4733279;30;20421;-68
2022/02/23 04:33:07;;;;;;;9.65;2.70;;;;;;;-149.78;100.00;50483.19;4729831;30;20597;-68
2022/02/23 04:35:39;;;;;;;10.52;1.90;;;;;;;-149.78;100.00;50530.13;4730098;30;20069;-69
2022/02/23 04:38:29;;;;;;;12.95;1.92;;;;;;;-149.78;100.00;50541.84;4748132;30;20443;-68
2022/02/23 04:41:18;;;;;;;11.13;1.85;;;;;;;-149.78;100.00;50494.91;4782367;30;20051;-69
2022/02/23 04:43:44;;;;;;;7.00;1.75;;;;;;;-149.78;100.00;50471.44;4782387;30;20051;-68
2022/02/23 04:46:21;;;;;;;10.07;2.05;;;;;;;-149.78;100.00;50498.81;4782901;30;20051;-68
2022/02/23 04:48:50;;;;;;;18.67;2.53;;;;;;;-149.78;100.00;50475.34;4767788;30;20051;-68
2022/02/23 04:51:48;;;;;;;9.20;1.77;;;;;;;-149.78;100.00;50498.81;4782799;30;20059;-68
2022/02/23 04:54:34;;;;;;;17.85;2.25;;;;;;;-149.78;100.00;50455.81;4780348;30;20224;-68
2022/02/23 04:57:18;;;;;;;16.05;1.90;;;;;;;-149.78;100.00;50498.81;4765825;30;20063;-68
2022/02/23 04:59:49;;;;;;;10.90;1.50;;;;;;;-149.78;100.00;50475.34;4769095;30;20043;-68
2022/02/23 05:02:35;;;;;;;9.90;2.05;;;;;;;-149.78;100.00;50494.91;4763079;30;20059;-68
2022/02/23 05:05:02;;;;;;;13.43;1.58;;;;;;;-149.78;100.00;50510.56;4749730;30;20044;-68
2022/02/23 05:07:48;;;;;;;14.07;2.15;;;;;;;-149.78;100.00;50506.66;4764112;30;20047;-67
2022/02/23 05:10:33;;;;;;;12.90;2.38;;;;;;;-149.78;100.00;50494.91;4764951;30;20393;-67
2022/02/23 05:13:21;;;;;;;11.70;1.95;;;;;;;-149.78;100.00;50467.53;4740936;30;20415;-68
2022/02/23 05:16:06;;;;;;;7.53;1.48;;;;;;;-149.78;100.00;50491.00;4777176;30;20085;-68
2022/02/23 05:18:52;;;;;;;11.57;2.22;;;;;;;-149.78;100.00;50467.53;4764596;30;20059;-68
2022/02/23 05:21:36;;;;;;;10.45;2.35;;;;;;;-149.78;100.00;50532.06;4764336;30;20116;-68
2022/02/23 05:24:28;;;;;;;13.10;2.63;;;;;;;-149.78;100.00;50487.09;4764042;30;20075;-68
2022/02/23 05:27:12;;;;;;;9.60;1.83;;;;;;;-149.78;100.00;50518.38;4764357;30;20090;-68
2022/02/23 05:29:56;;;;;;;12.98;1.95;;;;;;;-149.78;100.00;50432.31;4764407;30;20075;-68
2022/02/23 05:32:42;;;;;;;12.32;4.13;;;;;;;-149.78;100.00;50506.66;4776265;30;20588;-69
2022/02/23 05:35:26;;;;;;;12.25;1.95;;;;;;;-149.78;100.00;50520.34;4754576;30;20059;-68
2022/02/23 05:38:24;;;;;;;4.90;1.40;;;;;;;-149.78;100.00;50487.09;4745383;30;20123;-68
2022/02/23 05:41:10;;;;;;;10.68;1.40;;;;;;;-149.78;100.00;50455.81;4744632;30;20087;-68
2022/02/23 05:43:54;;;;;;;9.18;1.52;;;;;;;-149.78;100.00;50479.28;4746162;30;20741;-68
2022/02/23 05:46:38;;;;;;;17.83;2.83;;;;;;;-149.78;100.00;50471.44;4746612;30;20125;-68
2022/02/23 05:49:28;;;;;;;13.93;1.70;;;;;;;-149.78;100.00;50479.28;4755883;30;20099;-68
2022/02/23 05:52:15;;;;;;;9.60;1.83;;;;;;;-149.78;100.00;50463.63;4746250;30;20158;-68
2022/02/23 05:54:59;;;;;;;11.55;2.53;;;;;;;-149.78;100.00;50489.03;4746617;30;20086;-68
2022/02/23 05:57:43;;;;;;;7.13;2.28;;;;;;;-149.78;100.00;50487.09;4746375;30;20094;-68
2022/02/23 06:00:27;;;;;;;11.23;1.52;;;;;;;-149.78;100.00;50467.53;4746171;30;20071;-68
2022/02/23 06:03:11;;;;;;;11.95;1.83;;;;;;;-149.78;100.00;50492.97;4746457;30;20063;-68
2022/02/23 06:05:55;;;;;;;10.68;1.88;;;;;;;-149.78;100.00;50461.66;4746218;30;20066;-68
2022/02/23 06:08:41;;;;;;;9.30;1.73;;;;;;;-149.78;100.00;50483.19;4727489;30;20614;-70
2022/02/23 06:11:30;;;;;;;17.88;2.00;;;;;;;-149.78;100.00;50428.41;4728507;30;20517;-68
2022/02/23 06:14:27;;;;;;;8.57;1.52;;;;;;;-149.78;100.00;50447.97;4687034;30;20050;-68
2022/02/23 06:17:14;;;;;;;12.82;1.77;;;;;;;-149.78;100.00;50471.44;4676322;30;20129;-68
2022/02/23 06:19:58;;;;;;;8.25;1.73;;;;;;;-149.78;100.00;50471.44;4677691;30;20057;-68
2022/02/23 06:23:02;;;;;;;11.93;1.77;;;;;;;-149.78;100.00;50504.69;4704218;30;20551;-69
2022/02/23 06:26:04;;;;;;;10.13;1.70;;;;;;;-149.78;100.00;50463.63;4680070;30;20064;-69
2022/02/23 06:28:30;;;;;;;12.75;1.90;;;;;;;-149.78;100.00;50491.00;4696566;30;20223;-69
2022/02/23 06:30:55;;;;;;;8.30;1.25;;;;;;;-149.78;100.00;50510.56;4714514;30;20285;-68
2022/02/23 06:33:41;;;;;;;9.52;1.63;;;;;;;-149.78;100.00;50483.19;4714505;30;20060;-69
2022/02/23 06:36:28;;;;;;;16.45;1.77;;;;;;;-149.78;100.00;50444.06;4679904;30;20049;-69
2022/02/23 06:39:22;;;;;;;9.40;1.75;;;;;;;-149.78;100.00;50487.09;4662642;30;20186;-68
2022/02/23 06:42:07;;;;;;;13.73;1.52;;;;;;;-149.78;100.00;50494.91;4662980;30;20065;-69
2022/02/23 06:44:51;;;;;;;7.97;1.60;;;;;;;-149.78;100.00;50483.19;4662729;30;20164;-69
2022/02/23 06:47:35;;;;;;;10.65;2.60;;;;;;;-149.78;100.00;50471.44;4662722;30;20157;-69
2022/02/23 06:50:04;;;;;;;6.60;1.85;;;;;;;-149.78;100.00;50475.34;4662333;30;20062;-68
2022/02/23 06:52:55;;;;;;;8.02;1.80;;;;;;;-149.78;100.00;50475.34;4643619;30;20050;-69
2022/02/23 06:55:41;;;;;;;13.07;2.47;;;;;;;-149.78;100.00;50510.56;4629038;31;20139;-68
2022/02/23 06:58:25;;;;;;;13.15;1.70;;;;;;;-149.78;100.00;50483.19;4653952;30;20069;-69
2022/02/23 07:00:57;;;;;;;10.93;2.17;;;;;;;-149.78;100.00;50436.25;4679513;30;20530;-68
2022/02/23 07:03:45;;;;;;;12.63;1.60;;;;;;;-149.78;100.00;50471.44;4690367;30;20091;-68
2022/02/23 07:06:33;;;;;;;10.02;1.83;;;;;;;-149.78;100.00;50496.88;4712736;30;20092;-69
2022/02/23 07:09:17;;;;;;;10.73;1.60;;;;;;;-149.78;100.00;50475.34;4713915;30;20063;-69
2022/02/23 07:12:04;;;;;;;11.25;1.85;;;;;;;-149.78;100.00;50463.63;4714664;30;20456;-68
2022/02/23 07:14:56;;;;;;;10.65;1.60;;;;;;;-149.78;100.00;50485.13;4713228;30;20058;-68
2022/02/23 07:17:48;;;;;;;9.30;1.77;;;;;;;-149.78;100.00;50457.75;4646880;30;20133;-69
2022/02/23 07:20:34;;;;;;;6.78;1.80;;;;;;;-149.78;100.00;50483.19;4717394;30;20327;-68
2022/02/23 07:23:01;;;;;;;12.90;1.80;;;;;;;-149.78;100.00;50479.28;4735803;30;20128;-68
2022/02/23 07:25:45;;;;;;;10.00;1.98;;;;;;;-149.78;100.00;50506.66;4748715;30;20105;-68
2022/02/23 07:28:36;;;;;;;10.55;1.83;;;;;;;-149.78;100.00;50479.28;4748830;30;20056;-68
2022/02/23 07:31:25;;;;;;;13.63;1.88;;;;;;;-149.78;100.00;50526.22;4752419;30;20051;-68
2022/02/23 07:33:51;;;;;;;11.00;1.65;;;;;;;-149.78;100.00;50487.09;4736648;30;20071;-68
2022/02/23 07:36:36;;;;;;;9.80;1.67;;;;;;;-149.78;100.00;50487.09;4748182;30;20051;-69
2022/02/23 07:39:21;;;;;;;10.85;1.77;;;;;;;-149.78;100.00;50492.97;4747022;30;20040;-66
2022/02/23 07:42:05;;;;;;;13.10;2.25;;;;;;;-149.78;100.00;50479.28;4748603;30;20104;-67
2022/02/23 07:44:49;;;;;;;6.40;1.30;;;;;;;-149.78;100.00;50455.81;4750789;30;20238;-67
2022/02/23 07:47:37;;;;;;;16.33;2.08;;;;;;;-149.78;100.00;50451.88;4764472;30;20055;-67
2022/02/23 07:50:09;;;;;;;9.13;2.08;;;;;;;-149.78;100.00;50447.97;4773492;30;20069;-66
2022/02/23 07:52:58;;;;;;;6.80;1.42;;;;;;;-149.78;100.00;50453.84;4781048;30;20575;-67
2022/02/23 07:55:45;;;;;;;9.65;1.70;;;;;;;-149.78;100.00;50459.72;4783552;30;20556;-69
2022/02/23 07:58:30;;;;;;;14.18;2.58;;;;;;;-149.78;100.00;50498.81;4784023;30;20051;-72
2022/02/23 08:01:34;;;;;;;11.55;1.85;;;;;;;-149.78;100.00;50475.34;4781022;29;20055;-69
2022/02/23 08:04:20;;;;;;;20.83;2.20;;;;;;;-149.78;100.00;50444.06;4769577;30;20501;-70
2022/02/23 08:07:07;;;;;;;8.45;1.60;;;;;;;-149.78;100.00;50479.28;4767097;30;20059;-70
2022/02/23 08:09:59;;;;;;;7.50;1.58;;;;;;;-149.78;100.00;50494.91;4767124;29;20058;-70
2022/02/23 08:12:26;;;;;;;10.25;1.90;;;;;;;-149.78;100.00;50475.34;4765431;30;20047;-71
2022/02/23 08:14:54;;;;;;;13.48;1.67;;;;;;;-149.78;100.00;50447.97;4765859;30;20043;-70
2022/02/23 08:20:10;;;;;;;10.60;1.73;;;;;;;-149.78;100.00;50479.28;4765585;30;20036;-67
2022/02/23 08:22:57;;;;;;;11.02;1.65;;;;;;;-149.78;100.00;50479.28;4763481;30;20579;-69
2022/02/23 08:25:41;;;;;;;8.05;1.67;;;;;;;-149.78;100.00;50432.31;4778569;30;20159;-69
2022/02/23 08:28:26;;;;;;;10.50;2.33;;;;;;;-149.78;100.00;50467.53;4758951;30;20256;-69
2022/02/23 08:31:10;;;;;;;11.32;1.55;;;;;;;-149.78;100.00;50451.88;4775764;30;20062;-68
2022/02/23 08:34:00;;;;;;;8.80;2.08;;;;;;;-149.78;100.00;50483.19;4767008;30;20086;-68
2022/02/23 08:37:05;;;;;;;11.60;1.92;;;;;;;-149.78;100.00;50483.19;4775619;30;20672;-67
2022/02/23 08:40:09;;;;;;;9.88;1.42;;;;;;;-149.78;100.00;50397.13;4757764;30;20615;-69
2022/02/23 08:43:06;;;;;;;10.45;1.55;;;;;;;-149.78;100.00;50416.69;4745324;30;20142;-68
2022/02/23 08:45:50;;;;;;;10.00;1.48;;;;;;;-149.78;100.00;50389.31;4762015;30;20070;-68
2022/02/23 08:48:36;;;;;;;7.45;1.83;;;;;;;-149.78;100.00;50369.75;4762384;30;20452;-69
2022/02/23 08:51:26;;;;;;;5.82;1.40;;;;;;;-149.78;100.00;50377.56;4747254;30;20056;-69
2022/02/23 08:54:12;;;;;;;3.97;1.25;;;;;;;-149.78;100.00;50309.13;4747581;30;20163;-69
2022/02/23 08:57:02;;;;;;;12.45;1.63;;;;;;;-149.78;100.00;50332.59;4741302;30;20501;-69
2022/02/23 08:59:54;;;;;;;5.47;1.50;;;;;;;-149.78;100.00;50287.59;4729744;30;20482;-69
2022/02/23 09:02:42;;;;;;;6.90;1.42;;;;;;;-149.78;100.00;50295.44;4729618;30;20111;-69
2022/02/23 09:05:37;;;;;;;4.97;1.20;;;;;;;-149.78;100.00;50271.97;4656596;30;20202;-69
2022/02/23 09:08:29;;;;;;;6.57;1.30;;;;;;;-149.78;100.00;50295.44;4712539;30;20037;-69
2022/02/23 09:11:16;;;;;;;9.43;1.70;;;;;;;-149.78;100.00;50268.03;4678801;30;20447;-69
2022/02/23 09:14:11;;;;;;;5.22;1.35;;;;;;;-149.78;100.00;50299.34;4664011;30;20574;-69
2022/02/23 09:17:02;;;;;;;5.43;1.55;;;;;;;-149.78;100.00;50232.84;4662073;30;20455;-69
2022/02/23 09:19:49;;;;;;;5.18;1.50;;;;;;;-149.78;100.00;50270.00;4640036;30;20062;-69
2022/02/23 09:22:51;;;;;;;3.85;0.88;;;;;;;-149.78;100.00;50271.97;4653304;30;20058;-69
2022/02/23 09:25:36;;;;;;;3.80;1.20;;;;;;;-149.78;100.00;50236.75;4646679;30;20058;-69
2022/02/23 09:28:25;;;;;;;3.60;1.10;;;;;;;-149.78;100.00;50236.75;4647254;30;20066;-69
2022/02/23 09:31:10;;;;;;;5.13;1.15;;;;;;;-149.78;100.00;50258.28;4661409;30;20077;-69
2022/02/23 09:33:55;;;;;;;2.58;1.05;;;;;;;-149.78;100.00;50225.03;4663955;30;20109;-69
2022/02/23 09:36:41;;;;;;;6.63;1.30;;;;;;;-149.78;93.83;50232.84;4655295;30;20473;-69
2022/02/23 09:39:27;;;;;;;4.63;1.27;;;;;;;-149.78;88.46;50244.59;4676262;30;20168;-69
2022/02/23 09:42:29;;;;;;;3.78;1.13;;;;;;;-149.78;78.97;50217.19;4649501;30;20050;-69
2022/02/23 09:45:14;;;;;;;5.55;1.20;;;;;;;-149.78;93.45;50264.13;4645530;30;20070;-70
2022/02/23 09:47:59;;;;;;;6.90;1.52;;;;;;;-149.78;81.51;50236.75;4652637;30;20054;-69
2022/02/23 09:50:43;;;;;;;10.30;1.63;;;;;;;-149.78;75.30;50223.06;4667414;30;20057;-70
2022/02/23 09:53:35;;;;;;;4.53;1.05;;;;;;;-149.78;69.78;50201.56;4670167;30;20103;-70
2022/02/23 09:56:19;;;;;;;6.03;1.58;;;;;;;-149.78;73.79;50232.84;4677437;30;20113;-70
2022/02/23 09:59:04;;;;;;;3.10;0.90;;;;;;;-149.78;73.06;50205.47;4679486;30;20426;-70
2022/02/23 10:01:50;;;;;;;3.85;1.27;;;;;;;-149.78;65.78;50185.91;4657656;30;20154;-70
2022/02/23 10:04:35;;;;;;;5.75;1.20;;;;;;;-149.78;76.89;50213.28;4662527;30;20112;-70
2022/02/23 10:07:29;;;;;;;1.73;0.90;;;;;;;-149.78;77.48;50232.84;4662360;30;20452;-69
2022/02/23 10:10:35;;;;;;;2.88;0.82;;;;;;;-149.78;76.24;50240.66;4629885;31;20405;-69
2022/02/23 10:13:23;;;;;;;5.85;1.10;;;;;;;-149.78;74.54;50219.16;4642192;30;20063;-69
2022/02/23 10:16:18;;;;;;;2.65;1.05;;;;;;;-149.78;68.32;50244.59;4668463;30;20087;-70
2022/02/23 10:19:18;;;;;;;3.85;1.15;;;;;;;-149.78;69.77;50236.75;4697858;30;20060;-70
2022/02/23 10:22:09;;;;;;;5.70;1.15;;;;;;;-149.78;74.77;50232.84;4670640;30;20431;-70
2022/02/23 10:24:57;;;;;;;4.78;1.20;;;;;;;-149.78;81.66;50252.41;4672039;30;20555;-69
2022/02/23 10:27:42;;;;;;;2.65;0.95;;;;;;;-149.78;84.27;50260.22;4671899;30;20104;-70
2022/02/23 10:30:28;;;;;;;2.80;1.35;;;;;;;-149.78;95.18;50303.25;4671274;30;20069;-70
2022/02/23 10:33:36;;;;;;;2.53;0.70;;;;;;;-149.78;89.85;50244.59;4683974;30;20049;-70
2022/02/23 10:36:22;;;;;;;5.43;1.02;;;;;;;-149.78;80.75;50271.97;4714148;30;20044;-70
2022/02/23 10:39:10;;;;;;;5.72;1.13;;;;;;;-149.78;74.92;50236.75;4714762;30;20060;-70
2022/02/23 10:42:08;;;;;;;4.07;0.82;;;;;;;-149.78;75.99;50268.03;4715401;30;20111;-70
2022/02/23 10:44:54;;;;;;;4.68;1.00;;;;;;;-149.78;79.54;50264.13;4738852;30;20416;-70
2022/02/23 10:47:42;;;;;;;3.20;0.82;;;;;;;-149.78;92.13;50299.34;4752651;30;20502;-70
2022/02/23 10:50:28;;;;;;;3.78;0.82;;;;;;;-149.78;91.08;50283.69;4779758;29;20070;-70
2022/02/23 10:53:12;;;;;;;3.33;1.00;;;;;;;-149.78;99.70;50271.97;4778210;30;20063;-70
2022/02/23 10:55:57;;;;;;;3.65;0.95;;;;;;;-149.78;100.00;50299.34;4768889;30;20063;-70
2022/02/23 10:58:41;;;;;;;5.53;1.05;;;;;;;-149.78;100.00;50275.88;4770069;30;20397;-70
2022/02/23 11:01:26;;;;;;;4.57;1.00;;;;;;;-149.78;87.74;50275.88;4769267;30;20519;-70
2022/02/23 11:04:14;;;;;;;2.78;0.90;;;;;;;-149.78;75.18;50240.66;4749955;30;20052;-70
2022/02/23 11:06:58;;;;;;;6.10;0.98;;;;;;;-149.78;67.30;50244.59;4741824;30;20568;-70
2022/02/23 11:09:43;;;;;;;2.90;1.08;;;;;;;-149.78;75.44;50260.22;4762179;30;20460;-69
2022/02/23 11:12:37;;;;;;;6.20;0.80;;;;;;;-149.78;67.13;50205.47;4744287;30;20136;-69
2022/02/23 11:15:05;;;;;;;2.80;1.00;;;;;;;-149.78;67.51;50236.75;4756212;30;20062;-68
2022/02/23 11:17:33;;;;;;;4.20;1.20;;;;;;;-149.78;68.39;50240.66;4771501;30;20052;-68
2022/02/23 11:20:29;;;;;;;5.00;1.02;;;;;;;-149.78;72.72;50232.84;4772873;30;20065;-68
2022/02/23 11:22:59;;;;;;;4.00;1.10;;;;;;;-149.78;77.80;50248.50;4772690;30;20040;-68
2022/02/23 11:25:27;;;;;;;5.40;1.08;;;;;;;-149.78;97.26;50299.34;4772676;30;20036;-69
2022/02/23 11:27:58;;;;;;;4.93;1.00;;;;;;;-149.78;100.00;50303.25;4771119;29;20040;-70
2022/02/23 11:30:28;;;;;;;3.70;1.20;;;;;;;-149.78;100.00;50326.72;4752086;30;20031;-70
2022/02/23 11:32:54;;;;;;;7.65;1.33;;;;;;;-149.78;100.00;50303.25;4759703;30;20040;-71
2022/02/23 11:35:48;;;;;;;3.13;1.27;;;;;;;-149.78;100.00;50279.78;4756705;30;20039;-70
2022/02/23 11:38:18;;;;;;;3.10;0.93;;;;;;;-149.78;100.00;50338.44;4771024;30;20047;-70
2022/02/23 11:40:54;;;;;;;4.75;1.15;;;;;;;-149.78;100.00;50338.44;4772465;30;20043;-69
2022/02/23 11:43:29;;;;;;;4.47;1.13;;;;;;;-149.78;100.00;50354.09;4772516;30;20093;-70
2022/02/23 11:45:57;;;;;;;5.88;1.17;;;;;;;-149.78;100.00;50336.50;4772234;30;20127;-69
2022/02/23 11:48:23;;;;;;;5.47;1.15;;;;;;;-149.78;100.00;50375.63;4772056;30;20066;-69
2022/02/23 11:51:04;;;;;;;4.45;1.10;;;;;;;-149.78;100.00;50397.13;4781510;30;20068;-70
2022/02/23 11:53:40;;;;;;;2.45;0.70;;;;;;;-149.78;100.00;50363.88;4772081;30;20043;-68
2022/02/23 11:56:13;;;;;;;5.82;1.00;;;;;;;-149.78;100.00;50324.75;4768679;30;20044;-71
2022/02/23 11:58:53;;;;;;;1.08;0.70;;;;;;;-149.78;100.00;50350.19;4769254;30;20072;-70
2022/02/23 12:01:21;;;;;;;4.65;1.23;;;;;;;-149.78;100.00;50377.56;4767397;30;20105;-70
2022/02/23 12:04:14;;;;;;;2.42;0.90;;;;;;;-149.78;100.00;50365.84;4770062;30;20477;-70
2022/02/23 12:07:12;;;;;;;3.60;1.10;;;;;;;-149.78;100.00;50365.84;4753672;30;20063;-68
2022/02/23 12:09:58;;;;;;;3.85;0.80;;;;;;;-149.78;100.00;50363.88;4771588;30;20058;-71
2022/02/23 12:12:39;;;;;;;3.00;0.75;;;;;;;-149.78;100.00;50334.53;4776130;30;20488;-69
2022/02/23 12:15:08;;;;;;;3.50;1.30;;;;;;;-149.78;100.00;50311.06;4773685;30;20035;-70
2022/02/23 12:17:56;;;;;;;5.72;0.88;;;;;;;-149.78;100.00;50361.91;4772540;30;20112;-72
2022/02/23 12:20:37;;;;;;;3.30;1.00;;;;;;;-149.78;100.00;50303.25;4789493;30;20043;-70
2022/02/23 12:23:08;;;;;;;4.50;0.60;;;;;;;-149.78;100.00;50299.34;4756413;30;20054;-70
2022/02/23 12:25:50;;;;;;;4.32;1.00;;;;;;;-149.78;100.00;50334.53;4771456;30;20035;-71
2022/02/23 12:28:20;;;;;;;0.70;0.70;;;;;;;-149.78;100.00;50350.19;4756382;30;20063;-70